createdAt,value
2023-03-13T00:01:58.835Z,38.60
2023-03-13T00:04:32.046Z,34.58
2023-03-13T00:07:02.604Z,31.38
2023-03-13T00:09:30.597Z,39.30
2023-03-13T00:12:01.657Z,43.38
2023-03-13T00:14:34.648Z,44.42
2023-03-13T00:17:05.738Z,43.40
2023-03-13T00:19:33.641Z,42.70
2023-03-13T00:22:04.239Z,42.17
2023-03-13T00:24:34.306Z,32.90
2023-03-13T00:27:05.822Z,32.05
2023-03-13T00:29:38.386Z,27.17
2023-03-13T00:32:06.143Z,35.22
2023-03-13T00:34:52.051Z,26.60
2023-03-13T00:37:26.465Z,29.80
2023-03-13T00:39:54.557Z,26.33
2023-03-13T00:42:23.655Z,23.05
2023-03-13T00:44:53.865Z,27.43
2023-03-13T00:47:23.814Z,31.33
2023-03-13T00:50:00.998Z,25.73
2023-03-13T00:52:33.991Z,26.23
2023-03-13T00:55:13.646Z,25.27
2023-03-13T00:57:48.818Z,23.97
2023-03-13T01:00:16.793Z,26.60
2023-03-13T01:02:51.349Z,23.77
2023-03-13T01:05:19.284Z,22.93
2023-03-13T01:08:19.003Z,23.40
2023-03-13T01:10:57.994Z,25.40
2023-03-13T01:13:30.573Z,23.35
2023-03-13T01:16:00.800Z,26.27
2023-03-13T01:18:32.113Z,18.33
2023-03-13T01:21:05.451Z,17.00
2023-03-13T01:23:39.376Z,18.35
2023-03-13T01:26:25.444Z,17.20
2023-03-13T01:28:53.341Z,19.55
2023-03-13T01:31:25.865Z,13.17
2023-03-13T01:34:08.511Z,16.50
2023-03-13T01:36:43.987Z,15.20
2023-03-13T01:39:14.748Z,21.37
2023-03-13T01:41:52.213Z,19.87
2023-03-13T01:44:38.918Z,18.75
2023-03-13T01:47:16.615Z,18.50
2023-03-13T01:49:44.703Z,17.83
2023-03-13T01:52:15.675Z,18.70
2023-03-13T01:55:12.838Z,23.47
2023-03-13T01:57:57.700Z,20.98
2023-03-13T02:00:34.489Z,17.35
2023-03-13T02:03:13.050Z,15.02
2023-03-13T02:08:40.401Z,18.00
2023-03-13T02:14:03.036Z,16.02
2023-03-13T02:16:42.859Z,14.07
2023-03-13T02:19:46.111Z,16.17
2023-03-13T02:28:40.352Z,16.38
2023-03-13T02:31:11.270Z,18.00
2023-03-13T02:33:49.982Z,16.85
2023-03-13T02:39:16.383Z,14.18
2023-03-13T02:44:37.280Z,15.38
2023-03-13T02:47:27.319Z,15.68
2023-03-13T02:50:00.628Z,14.75
2023-03-13T02:52:43.329Z,18.70
2023-03-13T02:55:19.192Z,13.75
2023-03-13T03:00:40.277Z,17.15
2023-03-13T03:03:15.064Z,19.35
2023-03-13T03:05:46.645Z,18.30
2023-03-13T03:08:16.540Z,16.63
2023-03-13T03:11:04.682Z,18.17
2023-03-13T03:13:38.100Z,19.87
2023-03-13T03:16:07.607Z,17.30
2023-03-13T03:18:52.218Z,21.05
2023-03-13T03:21:40.982Z,17.52
2023-03-13T03:24:09.664Z,21.73
2023-03-13T03:26:40.099Z,22.48
2023-03-13T03:29:08.584Z,15.25
2023-03-13T03:31:55.612Z,19.42
2023-03-13T03:34:27.319Z,18.45
2023-03-13T03:36:57.567Z,19.88
2023-03-13T03:42:34.188Z,22.10
2023-03-13T03:45:07.047Z,18.58
2023-03-13T03:47:47.757Z,18.52
2023-03-13T03:50:24.400Z,16.55
2023-03-13T03:52:58.567Z,18.08
2023-03-13T03:58:14.066Z,20.27
2023-03-13T04:01:01.591Z,15.95
2023-03-13T04:03:39.286Z,20.73
2023-03-13T04:06:11.245Z,28.67
2023-03-13T04:14:20.891Z,19.58
2023-03-13T04:20:02.958Z,22.75
2023-03-13T04:22:50.954Z,20.27
2023-03-13T04:25:43.050Z,23.23
2023-03-13T04:31:29.362Z,22.73
2023-03-13T04:34:19.505Z,23.13
2023-03-13T04:40:16.003Z,22.93
2023-03-13T04:42:50.468Z,22.93
2023-03-13T04:45:24.620Z,22.00
2023-03-13T04:47:52.265Z,22.43
2023-03-13T04:53:16.900Z,25.63
2023-03-13T04:56:10.600Z,24.93
2023-03-13T05:01:23.500Z,21.90
2023-03-13T05:03:57.107Z,24.70
2023-03-13T05:09:15.625Z,27.40
2023-03-13T05:14:31.609Z,22.43
2023-03-13T05:19:40.163Z,26.80
2023-03-13T05:22:18.611Z,27.57
2023-03-13T05:25:21.453Z,25.03
2023-03-13T05:27:57.161Z,26.17
2023-03-13T05:30:35.744Z,25.87
2023-03-13T05:33:26.082Z,25.83
2023-03-13T05:39:05.155Z,30.10
2023-03-13T05:41:33.396Z,25.53
2023-03-13T05:44:15.800Z,30.87
2023-03-13T05:46:52.190Z,30.27
2023-03-13T05:49:26.194Z,28.23
2023-03-13T05:54:47.210Z,30.70
2023-03-13T05:57:16.388Z,25.70
2023-03-13T06:00:00.638Z,26.93
2023-03-13T06:02:35.451Z,33.47
2023-03-13T06:08:20.804Z,29.20
2023-03-13T06:11:20.941Z,33.23
2023-03-13T06:14:07.430Z,33.97
2023-03-13T06:17:11.535Z,33.50
2023-03-13T06:22:46.532Z,33.55
2023-03-13T06:28:54.085Z,36.43
2023-03-13T06:31:29.129Z,39.03
2023-03-13T06:39:28.426Z,36.70
2023-03-13T06:41:59.895Z,36.70
2023-03-13T06:47:08.676Z,42.13
2023-03-13T06:52:37.399Z,36.90
2023-03-13T06:58:29.092Z,34.77
2023-03-13T07:09:31.595Z,30.33
2023-03-13T07:12:12.058Z,31.03
2023-03-13T07:18:17.478Z,36.37
2023-03-13T07:23:29.048Z,33.40
2023-03-13T07:26:37.525Z,28.73
2023-03-13T07:40:47.367Z,29.63
2023-03-13T07:48:48.281Z,30.17
2023-03-13T08:08:08.949Z,36.70
2023-03-13T08:10:40.914Z,30.80
2023-03-13T08:13:14.776Z,28.63
2023-03-13T08:15:48.288Z,33.33
2023-03-13T08:18:45.774Z,29.87
2023-03-13T08:21:34.171Z,29.37
2023-03-13T08:24:03.527Z,28.37
2023-03-13T08:26:37.835Z,26.40
2023-03-13T08:29:07.501Z,34.73
2023-03-13T08:31:42.629Z,28.80
2023-03-13T08:34:13.636Z,32.58
2023-03-13T08:36:49.819Z,28.53
2023-03-13T08:39:18.707Z,41.33
2023-03-13T08:41:50.044Z,32.97
2023-03-13T08:44:42.467Z,37.90
2023-03-13T08:47:11.163Z,34.50
2023-03-13T08:49:40.682Z,39.03
2023-03-13T08:52:09.366Z,36.43
2023-03-13T08:54:43.707Z,36.60
2023-03-13T08:57:11.549Z,34.67
2023-03-13T08:59:39.386Z,38.77
2023-03-13T09:02:39.627Z,38.07
2023-03-13T09:05:10.339Z,38.67
2023-03-13T09:07:41.918Z,36.67
2023-03-13T09:10:15.254Z,37.50
2023-03-13T09:12:43.047Z,45.07
2023-03-13T09:15:13.132Z,40.83
2023-03-13T09:17:49.677Z,38.33
2023-03-13T09:20:19.305Z,41.13
2023-03-13T09:22:48.832Z,34.33
2023-03-13T09:25:16.980Z,36.93
2023-03-13T09:27:44.409Z,71.43
2023-03-13T09:30:15.048Z,67.10
2023-03-13T09:32:51.856Z,70.67
2023-03-13T09:35:21.502Z,39.77
2023-03-13T09:37:50.376Z,38.97
2023-03-13T09:40:22.790Z,38.67
2023-03-13T09:42:57.759Z,37.97
2023-03-13T09:45:43.096Z,33.33
2023-03-13T09:48:15.703Z,32.95
2023-03-13T09:50:49.149Z,32.97
2023-03-13T09:53:21.369Z,35.13
2023-03-13T09:55:49.425Z,39.23
2023-03-13T10:01:40.049Z,33.30
2023-03-13T10:04:33.685Z,30.67
2023-03-13T10:07:03.083Z,36.03
2023-03-13T10:09:48.462Z,29.47
2023-03-13T10:12:22.654Z,26.38
2023-03-13T10:15:16.054Z,27.10
2023-03-13T10:17:48.412Z,24.30
2023-03-13T10:20:44.769Z,25.00
2023-03-13T10:23:33.732Z,24.90
2023-03-13T10:29:12.817Z,22.63
2023-03-13T10:31:40.782Z,22.83
2023-03-13T10:34:10.927Z,23.03
2023-03-13T10:36:43.083Z,23.73
2023-03-13T10:39:20.753Z,21.20
2023-03-13T10:41:52.057Z,19.03
2023-03-13T10:47:04.103Z,22.20
2023-03-13T10:49:58.461Z,21.67
2023-03-13T10:52:32.084Z,25.27
2023-03-13T10:55:06.124Z,22.03
2023-03-13T11:00:38.770Z,19.60
2023-03-13T11:08:43.201Z,22.43
2023-03-13T11:14:39.340Z,21.27
2023-03-13T11:17:34.380Z,17.90
2023-03-13T11:26:58.409Z,20.23
2023-03-13T11:29:49.512Z,21.03
2023-03-13T11:32:39.463Z,20.37
2023-03-13T11:35:56.845Z,14.67
2023-03-13T11:39:01.140Z,21.10
2023-03-13T11:41:56.593Z,17.27
2023-03-13T11:51:42.868Z,19.57
2023-03-13T11:54:51.740Z,17.83
2023-03-13T12:00:58.132Z,21.10
2023-03-13T12:04:06.417Z,20.40
2023-03-13T12:06:47.380Z,32.10
2023-03-13T12:09:41.717Z,19.83
2023-03-13T12:12:53.900Z,18.77
2023-03-13T12:15:35.520Z,15.90
2023-03-13T12:25:04.455Z,17.40
2023-03-13T12:28:01.166Z,22.67
2023-03-13T12:30:59.274Z,20.85
2023-03-13T12:34:13.704Z,19.03
2023-03-13T12:37:01.692Z,19.60
2023-03-13T12:39:54.619Z,20.87
2023-03-13T12:43:08.901Z,20.50
2023-03-13T12:45:55.223Z,20.57
2023-03-13T12:48:55.785Z,22.67
2023-03-13T13:18:28.280Z,20.73
2023-03-13T13:40:34.701Z,20.27
2023-03-13T13:46:52.535Z,14.93
2023-03-13T13:52:53.432Z,15.20
2023-03-13T13:55:44.092Z,16.20
2023-03-13T13:58:31.492Z,19.50
2023-03-13T14:01:11.772Z,13.63
2023-03-13T14:03:42.764Z,16.17
2023-03-13T14:06:33.489Z,13.67
2023-03-13T14:09:16.759Z,16.53
2023-03-13T14:14:39.326Z,14.67
2023-03-13T14:17:10.154Z,12.27
2023-03-13T14:19:42.227Z,14.37
2023-03-13T14:22:15.779Z,17.80
2023-03-13T14:25:05.266Z,14.83
2023-03-13T14:27:40.094Z,9.23
2023-03-13T14:30:09.642Z,13.20
2023-03-13T14:32:38.167Z,15.27
2023-03-13T14:35:07.962Z,17.27
2023-03-13T14:38:01.557Z,9.80
2023-03-13T14:40:31.015Z,12.20
2023-03-13T14:43:00.675Z,16.63
2023-03-13T14:45:34.582Z,14.80
2023-03-13T14:48:06.048Z,11.57
2023-03-13T14:50:35.098Z,11.03
2023-03-13T14:53:11.469Z,13.97
2023-03-13T14:55:41.329Z,12.87
2023-03-13T14:58:27.883Z,11.90
2023-03-13T15:00:59.473Z,12.70
2023-03-13T15:03:32.672Z,12.57
2023-03-13T15:06:20.486Z,11.43
2023-03-13T15:08:51.786Z,11.33
2023-03-13T15:11:30.223Z,14.40
2023-03-13T15:13:57.923Z,9.93
2023-03-13T15:16:26.241Z,13.07
2023-03-13T15:18:54.616Z,10.07
2023-03-13T15:21:32.683Z,11.13
2023-03-13T15:24:19.718Z,13.43
2023-03-13T15:26:49.204Z,11.13
2023-03-13T15:29:18.399Z,9.23
2023-03-13T15:31:45.512Z,13.87
2023-03-13T15:34:14.684Z,10.37
2023-03-13T15:36:42.708Z,11.53
2023-03-13T15:39:16.436Z,88.33
2023-03-13T15:41:43.514Z,16.97
2023-03-13T15:44:10.751Z,10.83
2023-03-13T15:46:37.875Z,12.77
2023-03-13T15:49:05.340Z,16.87
2023-03-13T15:51:33.476Z,13.10
2023-03-13T15:54:00.576Z,12.67
2023-03-13T15:56:34.198Z,13.73
2023-03-13T15:59:01.654Z,11.67
2023-03-13T16:01:29.061Z,10.70
2023-03-13T16:03:58.500Z,8.90
2023-03-13T16:06:31.299Z,10.60
2023-03-13T16:09:01.181Z,12.33
2023-03-13T16:11:29.518Z,9.87
2023-03-13T16:13:57.487Z,8.73
2023-03-13T16:16:29.940Z,9.37
2023-03-13T16:18:58.610Z,12.23
2023-03-13T16:21:28.602Z,11.03
2023-03-13T16:23:56.792Z,15.27
2023-03-13T16:26:25.602Z,12.97
2023-03-13T16:28:53.812Z,16.00
2023-03-13T16:31:22.810Z,11.17
2023-03-13T16:33:53.453Z,13.70
2023-03-13T16:36:25.750Z,11.17
2023-03-13T16:38:54.084Z,9.50
2023-03-13T16:41:24.211Z,10.67
2023-03-13T16:43:51.767Z,13.63
2023-03-13T16:46:22.014Z,13.43
2023-03-13T16:48:50.300Z,29.33
2023-03-13T16:51:23.581Z,20.43
2023-03-13T16:53:54.335Z,21.00
2023-03-13T16:56:43.149Z,15.37
2023-03-13T16:59:12.727Z,18.37
2023-03-13T17:01:40.171Z,15.93
2023-03-13T17:04:07.459Z,16.83
2023-03-13T17:06:37.934Z,19.07
2023-03-13T17:09:11.301Z,17.07
2023-03-13T17:11:38.564Z,17.93
2023-03-13T17:14:05.695Z,15.40
2023-03-13T17:16:35.358Z,13.10
2023-03-13T17:19:04.199Z,15.30
2023-03-13T17:21:33.171Z,15.67
2023-03-13T17:24:01.472Z,14.00
2023-03-13T17:26:33.452Z,13.23
2023-03-13T17:29:03.506Z,14.27
2023-03-13T17:31:37.672Z,14.00
2023-03-13T17:34:06.511Z,18.83
2023-03-13T17:36:34.178Z,16.57
2023-03-13T17:39:06.290Z,16.30
2023-03-13T17:41:35.374Z,13.40
2023-03-13T17:44:04.004Z,14.30
2023-03-13T17:46:50.267Z,13.60
2023-03-13T17:49:20.789Z,15.97
2023-03-13T17:51:51.548Z,13.73
2023-03-13T17:54:18.977Z,12.40
2023-03-13T17:56:46.342Z,15.33
2023-03-13T17:59:17.766Z,14.43
2023-03-13T18:01:45.435Z,14.77
2023-03-13T18:04:13.414Z,15.63
2023-03-13T18:07:00.936Z,17.03
2023-03-13T18:09:28.140Z,16.87
2023-03-13T18:11:55.306Z,19.33
2023-03-13T18:14:23.174Z,16.83
2023-03-13T18:16:51.364Z,17.30
2023-03-13T18:19:22.487Z,18.33
2023-03-13T18:21:52.375Z,14.93
2023-03-13T18:24:26.590Z,13.13
2023-03-13T18:26:54.002Z,14.20
2023-03-13T18:29:27.050Z,14.77
2023-03-13T18:31:57.561Z,14.47
2023-03-13T18:34:26.060Z,19.00
2023-03-13T18:36:54.335Z,17.73
2023-03-13T18:39:22.245Z,18.93
2023-03-13T18:41:52.439Z,19.03
2023-03-13T18:44:21.180Z,20.10
2023-03-13T18:46:48.520Z,17.87
2023-03-13T18:49:20.431Z,17.03
2023-03-13T18:51:49.808Z,19.87
2023-03-13T18:54:17.579Z,20.53
2023-03-13T18:56:45.951Z,17.20
2023-03-13T18:59:16.439Z,20.60
2023-03-13T19:01:43.923Z,18.80
2023-03-13T19:04:11.465Z,22.90
2023-03-13T19:06:38.786Z,20.37
2023-03-13T19:09:40.975Z,21.77
2023-03-13T19:12:04.561Z,17.00
2023-03-13T19:14:32.332Z,22.90
2023-03-13T19:16:59.998Z,20.27
2023-03-13T19:19:27.917Z,20.20
2023-03-13T19:21:56.505Z,18.67
2023-03-13T19:24:26.870Z,17.33
2023-03-13T19:26:59.001Z,21.53
2023-03-13T19:29:28.945Z,24.30
2023-03-13T19:31:56.916Z,21.07
2023-03-13T19:34:24.307Z,18.60
2023-03-13T19:36:53.564Z,16.50
2023-03-13T19:39:26.668Z,19.30
2023-03-13T19:41:54.488Z,16.70
2023-03-13T19:44:25.360Z,18.20
2023-03-13T19:46:54.930Z,18.87
2023-03-13T19:49:22.804Z,18.70
2023-03-13T19:51:50.289Z,17.77
2023-03-13T19:54:19.126Z,18.73
2023-03-13T19:56:48.404Z,18.00
2023-03-13T19:59:20.814Z,16.90
2023-03-13T20:01:48.752Z,18.57
2023-03-13T20:04:20.826Z,19.50
2023-03-13T20:06:48.429Z,20.90
2023-03-13T20:09:17.758Z,20.07
2023-03-13T20:11:45.723Z,19.77
2023-03-13T20:14:13.555Z,16.83
2023-03-13T20:16:41.980Z,17.30
2023-03-13T20:19:09.336Z,18.60
2023-03-13T20:21:43.219Z,18.73
2023-03-13T20:24:11.060Z,21.07
2023-03-13T20:26:38.619Z,17.13
2023-03-13T20:29:06.282Z,17.60
2023-03-13T20:31:33.686Z,18.70
2023-03-13T20:34:05.262Z,23.27
2023-03-13T20:36:33.065Z,17.73
2023-03-13T20:39:00.403Z,17.93
2023-03-13T20:41:31.407Z,17.63
2023-03-13T20:43:58.765Z,18.60
2023-03-13T20:46:27.047Z,17.83
2023-03-13T20:48:55.184Z,20.60
2023-03-13T20:51:26.466Z,21.60
2023-03-13T20:53:53.962Z,17.63
2023-03-13T20:56:23.391Z,20.17
2023-03-13T20:59:07.125Z,20.27
2023-03-13T21:01:34.284Z,18.97
2023-03-13T21:04:01.578Z,21.70
2023-03-13T21:06:31.603Z,19.60
2023-03-13T21:09:01.262Z,17.53
2023-03-13T21:11:28.713Z,17.77
2023-03-13T21:13:56.287Z,17.87
2023-03-13T21:16:23.568Z,22.57
2023-03-13T21:18:51.037Z,20.67
2023-03-13T21:21:21.068Z,23.93
2023-03-13T21:23:52.494Z,21.30
2023-03-13T21:26:25.239Z,22.13
2023-03-13T21:28:55.679Z,19.13
2023-03-13T21:31:23.351Z,20.27
2023-03-13T21:33:51.083Z,19.07
2023-03-13T21:36:22.913Z,23.03
2023-03-13T21:38:51.030Z,19.47
2023-03-13T21:41:21.057Z,18.77
2023-03-13T21:43:48.350Z,20.13
2023-03-13T21:46:17.364Z,18.83
2023-03-13T21:51:13.371Z,20.77
2023-03-13T21:53:42.269Z,19.80
2023-03-13T21:56:15.233Z,20.33
2023-03-13T21:58:43.021Z,19.27
2023-03-13T22:01:10.717Z,20.63
2023-03-13T22:03:38.407Z,18.77
2023-03-13T22:06:14.653Z,17.17
2023-03-13T22:08:42.977Z,17.40
2023-03-13T22:11:10.543Z,18.90
2023-03-13T22:13:38.181Z,20.43
2023-03-13T22:16:07.504Z,18.93
2023-03-13T22:18:34.752Z,17.47
2023-03-13T22:21:02.052Z,21.93
2023-03-13T22:23:31.340Z,20.80
2023-03-13T22:25:59.543Z,16.90
2023-03-13T22:28:27.388Z,17.20
2023-03-13T22:30:54.889Z,20.07
2023-03-13T22:33:22.387Z,17.50
2023-03-13T22:35:52.888Z,17.03
2023-03-13T22:38:20.808Z,15.33
2023-03-13T22:40:49.490Z,19.63
2023-03-13T22:43:16.696Z,16.70
2023-03-13T22:45:43.970Z,17.50
2023-03-13T22:48:11.245Z,15.27
2023-03-13T22:50:39.729Z,17.33
2023-03-13T22:53:10.039Z,16.17
2023-03-13T22:55:38.309Z,15.23
2023-03-13T22:58:09.976Z,16.53
2023-03-13T23:00:38.275Z,15.27
2023-03-13T23:03:06.656Z,15.93
2023-03-13T23:05:38.473Z,16.63
2023-03-13T23:08:09.746Z,14.63
2023-03-13T23:10:38.427Z,19.17
2023-03-13T23:13:06.835Z,20.27
2023-03-13T23:15:54.712Z,13.50
2023-03-13T23:18:23.578Z,19.33
2023-03-13T23:20:53.264Z,16.57
2023-03-13T23:23:27.467Z,16.37
2023-03-13T23:25:57.862Z,16.03
2023-03-13T23:28:26.326Z,20.30
2023-03-13T23:30:54.669Z,14.63
2023-03-13T23:33:23.092Z,15.77
2023-03-13T23:35:51.504Z,14.10
2023-03-13T23:38:25.634Z,16.70
2023-03-13T23:40:57.155Z,13.27
2023-03-13T23:43:26.301Z,13.93
2023-03-13T23:45:54.895Z,15.83
2023-03-13T23:48:23.272Z,16.27
2023-03-13T23:50:54.937Z,17.87
2023-03-13T23:53:23.942Z,15.97
2023-03-13T23:56:00.286Z,14.80
2023-03-13T23:58:28.925Z,17.50
